Naples, Florida
Current Conditions -  °F | °C
As of 11:53 PM on Tuesday 25 Nov 2014 (Local Time) from KAPF Reporting Station
Overcast Overcast  
Wind Chill: 26°   Ceiling: 3500
Heat Index: 27°   Visibility: 10mi
Dew Point: 24°   Wind: 15mph
Humidity: 90%   Direction: 160°SSE
Pressure: 29.89"   Gusts: NA
Location:  26.14°N, 81.79°W
Report Text: KAPF 260453Z 16013KT 10SM FEW010 BKN035 OVC050 26/24 A2989 RMK AO2 LTG DSNT W AND NW SLP122 T02560239 402940250
Loading
Personal Weather Stations






























Interactive Weather Map New forecast layout! Learn more

10-Day Weather Forecast

Advertisements
Track Severe Weather on mobile